Time;durP1;ratioP1;P1;durP2;ratioP2;P2;SDS_P1;SDS_P2;PMS_P1;PMS_P2;Temp;Humidity;BMP_temperature;BMP_pressure;BME280_temperature;BME280_humidity;BME280_pressure;Samples;Min_cycle;Max_cycle;Signal;HPM_P1;HPM_P2
2022/12/05 00:02:19;;;;;;;13.20;7.10;;;6.20;99.90;;;;;;4958276;28;20031;-77
2022/12/05 00:04:45;;;;;;;14.45;6.90;;;6.20;99.90;;;;;;4959632;28;20019;-76
2022/12/05 00:07:11;;;;;;;16.30;8.18;;;6.20;99.90;;;;;;4949147;28;20027;-77
2022/12/05 00:09:36;;;;;;;16.02;7.95;;;6.20;99.90;;;;;;4939467;28;20019;-77
2022/12/05 00:12:02;;;;;;;13.45;6.65;;;6.20;99.90;;;;;;4954285;28;20453;-77
2022/12/05 00:14:28;;;;;;;15.18;7.22;;;6.20;99.90;;;;;;4970721;28;20028;-77
2022/12/05 00:16:54;;;;;;;15.57;8.07;;;6.20;99.90;;;;;;4953642;28;20058;-77
2022/12/05 00:19:19;;;;;;;14.50;7.18;;;6.20;99.90;;;;;;4958081;28;20035;-77
2022/12/05 00:21:45;;;;;;;16.10;8.00;;;6.20;99.90;;;;;;4929862;29;20508;-77
2022/12/05 00:24:18;;;;;;;15.20;7.75;;;6.20;99.90;;;;;;4934854;29;20031;-77
2022/12/05 00:26:44;;;;;;;14.38;7.40;;;6.10;99.90;;;;;;4941797;29;20102;-77
2022/12/05 00:29:10;;;;;;;14.88;7.32;;;6.10;99.90;;;;;;4925934;29;20119;-77
2022/12/05 00:31:35;;;;;;;14.60;7.38;;;6.20;99.90;;;;;;4941647;29;20047;-77
2022/12/05 00:34:02;;;;;;;15.80;8.00;;;6.20;99.90;;;;;;4941601;29;20034;-78
2022/12/05 00:36:32;;;;;;;14.85;7.50;;;6.20;99.90;;;;;;4941579;29;20037;-78
2022/12/05 00:39:00;;;;;;;16.38;8.15;;;6.20;99.90;;;;;;4918086;29;20047;-78
2022/12/05 00:41:28;;;;;;;17.42;8.05;;;6.20;99.90;;;;;;4931318;29;20028;-77
2022/12/05 00:43:54;;;;;;;13.93;6.72;;;6.20;99.90;;;;;;4941015;29;20366;-78
2022/12/05 00:46:23;;;;;;;17.92;9.05;;;6.20;99.90;;;;;;4934072;29;20028;-78
2022/12/05 00:48:51;;;;;;;19.83;9.63;;;6.20;99.90;;;;;;4955803;28;20019;-78
2022/12/05 00:51:19;;;;;;;17.85;8.85;;;6.20;99.90;;;;;;4959971;28;20039;-78
2022/12/05 00:53:45;;;;;;;17.23;7.63;;;6.20;99.90;;;;;;4958447;28;20042;-78
2022/12/05 00:56:14;;;;;;;17.58;8.48;;;6.20;99.90;;;;;;4953072;28;20035;-78
2022/12/05 00:58:40;;;;;;;17.05;8.38;;;6.20;99.90;;;;;;4944234;28;20020;-78
2022/12/05 01:01:15;;;;;;;19.00;8.77;;;6.20;99.90;;;;;;4953580;28;20472;-78
2022/12/05 01:03:42;;;;;;;14.65;8.00;;;6.20;99.90;;;;;;4937034;29;20041;-78
2022/12/05 01:06:09;;;;;;;19.70;8.95;;;6.20;99.90;;;;;;4960146;28;20043;-78
2022/12/05 01:08:35;;;;;;;16.77;8.82;;;6.20;99.90;;;;;;4942799;28;20480;-78
2022/12/05 01:11:02;;;;;;;19.38;9.00;;;6.20;99.90;;;;;;4960247;28;20054;-78
2022/12/05 01:13:28;;;;;;;18.83;8.48;;;6.20;99.90;;;;;;4959693;28;20033;-77
2022/12/05 01:15:54;;;;;;;16.10;7.78;;;6.20;99.90;;;;;;4939295;29;20035;-78
2022/12/05 01:18:21;;;;;;;20.13;9.07;;;6.20;99.90;;;;;;4942659;29;20031;-78
2022/12/05 01:20:48;;;;;;;17.08;8.98;;;6.20;99.90;;;;;;4957959;28;20035;-77
2022/12/05 01:23:13;;;;;;;20.75;10.30;;;6.20;99.90;;;;;;4956772;28;20052;-77
2022/12/05 01:25:41;;;;;;;16.92;8.25;;;6.20;99.90;;;;;;4942859;29;20100;-77
2022/12/05 01:28:07;;;;;;;19.40;8.57;;;6.20;99.90;;;;;;4943498;28;20046;-77
2022/12/05 01:30:36;;;;;;;18.52;9.10;;;6.20;99.90;;;;;;4948183;28;20481;-76
2022/12/05 01:33:01;;;;;;;16.45;7.75;;;6.20;99.90;;;;;;4957377;28;20031;-78
2022/12/05 01:35:33;;;;;;;15.93;7.90;;;6.20;99.90;;;;;;4957579;28;20027;-78
2022/12/05 01:37:59;;;;;;;19.27;8.95;;;6.20;99.90;;;;;;4944049;29;20083;-78
2022/12/05 01:40:25;;;;;;;19.30;8.98;;;6.20;99.90;;;;;;4959741;28;20076;-77
2022/12/05 01:42:50;;;;;;;16.00;7.43;;;6.20;99.90;;;;;;4959149;28;20020;-77
2022/12/05 01:45:23;;;;;;;14.70;6.95;;;6.20;99.90;;;;;;4942156;29;20054;-76
2022/12/05 01:47:49;;;;;;;14.38;6.95;;;6.20;99.90;;;;;;4950917;28;20027;-76
2022/12/05 01:50:14;;;;;;;15.52;7.85;;;6.20;99.90;;;;;;4959487;28;20400;-77
2022/12/05 01:52:40;;;;;;;16.48;6.95;;;6.20;99.90;;;;;;4959276;28;20035;-77
2022/12/05 01:55:12;;;;;;;18.02;7.85;;;6.20;99.90;;;;;;4959474;28;20027;-77
2022/12/05 01:57:39;;;;;;;17.23;7.97;;;6.20;99.90;;;;;;4942021;29;20489;-77
2022/12/05 02:00:10;;;;;;;16.10;7.78;;;6.20;99.90;;;;;;4941558;29;20023;-77
2022/12/05 02:02:37;;;;;;;16.25;8.10;;;6.20;99.90;;;;;;4951988;28;20500;-78
2022/12/05 02:05:07;;;;;;;16.92;8.30;;;6.10;99.90;;;;;;4941565;29;20054;-78
2022/12/05 02:07:35;;;;;;;20.80;9.00;;;6.10;99.90;;;;;;4941546;29;20039;-78
2022/12/05 02:10:01;;;;;;;15.48;7.65;;;6.10;99.90;;;;;;4959024;28;20114;-78
2022/12/05 02:12:26;;;;;;;15.65;7.60;;;6.10;99.90;;;;;;4959186;28;20058;-78
2022/12/05 02:15:43;;;;;;;;;;;;;;;;;;;;;
2022/12/05 02:19:04;;;;;;;16.45;7.78;;;6.10;99.90;;;;;;4958829;28;20037;-80
2022/12/05 02:22:07;;;;;;;15.80;7.05;;;6.10;99.90;;;;;;4955398;28;20040;-76
2022/12/05 02:25:02;;;;;;;14.95;6.50;;;6.20;99.90;;;;;;4949285;28;20039;-76
2022/12/05 02:27:50;;;;;;;13.57;7.30;;;6.20;99.90;;;;;;4935902;29;20046;-77
2022/12/05 02:30:19;;;;;;;12.95;6.90;;;6.20;99.90;;;;;;4938246;29;20062;-76
2022/12/05 02:33:09;;;;;;;17.17;8.52;;;6.10;99.90;;;;;;4953787;28;20028;-77
2022/12/05 02:36:01;;;;;;;18.65;9.15;;;6.10;99.90;;;;;;4956756;28;20031;-77
2022/12/05 02:38:35;;;;;;;14.85;7.18;;;6.20;99.90;;;;;;4947630;28;20603;-76
2022/12/05 02:41:06;;;;;;;19.77;8.88;;;6.20;99.90;;;;;;4958536;28;20099;-76
2022/12/05 02:43:32;;;;;;;15.13;7.57;;;6.20;99.90;;;;;;4958382;28;20093;-77
2022/12/05 02:46:03;;;;;;;14.40;6.88;;;6.20;99.90;;;;;;4940652;29;20031;-77
2022/12/05 02:48:29;;;;;;;20.35;9.02;;;6.20;99.90;;;;;;4925606;29;20040;-76
2022/12/05 02:50:57;;;;;;;16.30;7.35;;;6.20;99.90;;;;;;4938179;29;20488;-78
2022/12/05 02:53:26;;;;;;;18.27;8.10;;;6.20;99.90;;;;;;4951032;28;20041;-79
2022/12/05 02:55:53;;;;;;;17.00;7.82;;;6.20;99.90;;;;;;4940901;29;20072;-78
2022/12/05 02:58:23;;;;;;;18.25;7.80;;;6.20;99.90;;;;;;4955177;28;20096;-78
2022/12/05 03:00:54;;;;;;;18.77;8.63;;;6.20;99.90;;;;;;4958286;28;20118;-78
2022/12/05 03:03:21;;;;;;;16.85;7.53;;;6.20;99.90;;;;;;4941246;28;20070;-78
2022/12/05 03:06:27;;;;;;;18.15;8.50;;;6.20;99.90;;;;;;4941542;29;20031;-80
2022/12/05 03:09:11;;;;;;;17.70;7.68;;;6.20;99.90;;;;;;4958634;28;20036;-79
2022/12/05 03:11:41;;;;;;;17.60;8.27;;;6.20;99.90;;;;;;4942756;28;20038;-79
2022/12/05 03:14:30;;;;;;;19.95;8.70;;;6.20;99.90;;;;;;4944757;29;20031;-79
2022/12/05 03:17:00;;;;;;;17.17;8.48;;;6.20;99.90;;;;;;4961491;28;20547;-78
2022/12/05 03:19:33;;;;;;;18.10;8.32;;;6.10;99.90;;;;;;4943226;29;20055;-78
2022/12/05 03:22:17;;;;;;;19.80;7.90;;;6.10;99.90;;;;;;4948978;28;20043;-78
2022/12/05 03:24:43;;;;;;;17.42;7.90;;;6.10;99.90;;;;;;4956706;28;20024;-78
2022/12/05 03:27:14;;;;;;;17.90;8.27;;;6.10;99.90;;;;;;4944692;29;20369;-78
2022/12/05 03:30:03;;;;;;;16.38;8.20;;;6.10;99.90;;;;;;4961377;28;20400;-77
2022/12/05 03:32:29;;;;;;;18.25;7.90;;;6.10;99.90;;;;;;4942715;28;20023;-78
2022/12/05 03:35:24;;;;;;;21.30;8.80;;;6.10;99.90;;;;;;4961696;28;20443;-78
2022/12/05 03:38:02;;;;;;;17.52;8.27;;;6.10;99.90;;;;;;4927163;29;20074;-79
2022/12/05 03:40:33;;;;;;;20.13;8.68;;;6.10;99.90;;;;;;4961648;28;20020;-79
2022/12/05 03:43:14;;;;;;;16.85;8.23;;;6.10;99.90;;;;;;4961051;28;20540;-77
2022/12/05 03:45:47;;;;;;;21.85;9.07;;;6.10;99.90;;;;;;4943623;28;20027;-78
2022/12/05 03:48:22;;;;;;;20.42;8.85;;;6.10;99.90;;;;;;4961308;28;20031;-77
2022/12/05 03:50:50;;;;;;;23.63;9.43;;;6.10;99.90;;;;;;4961008;28;20031;-77
2022/12/05 03:53:21;;;;;;;20.08;9.00;;;6.10;99.90;;;;;;4961134;28;20110;-78
2022/12/05 03:56:01;;;;;;;22.10;8.38;;;6.10;99.90;;;;;;4943667;29;20026;-78
2022/12/05 03:58:36;;;;;;;20.83;9.52;;;6.10;99.90;;;;;;4960766;28;20040;-79
2022/12/05 04:01:05;;;;;;;20.65;8.50;;;6.10;99.90;;;;;;4937987;29;20035;-78
2022/12/05 04:04:00;;;;;;;23.35;9.98;;;6.10;99.90;;;;;;4943274;28;20094;-78
2022/12/05 04:06:32;;;;;;;20.15;8.73;;;6.10;99.90;;;;;;4942493;29;20043;-78
2022/12/05 04:09:09;;;;;;;19.33;7.93;;;6.20;99.90;;;;;;4960793;28;20035;-78
2022/12/05 04:11:39;;;;;;;23.92;8.77;;;6.20;99.90;;;;;;4941681;28;20488;-78
2022/12/05 04:14:10;;;;;;;20.27;8.70;;;6.20;99.90;;;;;;4960762;28;20023;-78
2022/12/05 04:22:39;;;;;;;15.80;7.30;;;6.20;99.90;;;;;;4942126;28;20055;-78
2022/12/05 04:28:11;;;;;;;21.10;9.45;;;6.10;99.90;;;;;;4955991;28;20094;-77
2022/12/05 04:30:52;;;;;;;17.08;6.85;;;6.20;99.90;;;;;;4943715;29;20023;-77
2022/12/05 04:33:30;;;;;;;16.98;7.68;;;6.20;99.90;;;;;;4960726;28;20083;-78
2022/12/05 04:36:06;;;;;;;20.65;8.25;;;6.10;99.90;;;;;;4960649;28;20034;-77
2022/12/05 04:38:42;;;;;;;20.67;8.27;;;6.10;99.90;;;;;;4935740;29;20027;-76
2022/12/05 04:41:25;;;;;;;20.27;8.82;;;6.10;99.90;;;;;;4940486;29;20501;-76
2022/12/05 04:43:54;;;;;;;21.60;8.55;;;6.10;99.90;;;;;;4955148;28;20054;-77
2022/12/05 04:46:22;;;;;;;17.33;7.88;;;6.10;99.90;;;;;;4966493;28;20027;-77
2022/12/05 04:48:55;;;;;;;26.75;9.77;;;6.10;99.90;;;;;;4967030;28;20171;-79
2022/12/05 04:51:25;;;;;;;16.38;8.48;;;6.10;99.90;;;;;;4960234;28;20404;-79
2022/12/05 04:53:56;;;;;;;18.13;7.70;;;6.10;99.90;;;;;;4960308;28;20035;-79
2022/12/05 04:56:26;;;;;;;17.55;7.25;;;6.10;99.90;;;;;;4943298;29;20473;-79
2022/12/05 04:58:53;;;;;;;18.52;7.28;;;6.10;99.90;;;;;;4960043;28;20039;-78
2022/12/05 05:01:38;;;;;;;19.35;8.43;;;6.10;99.90;;;;;;4959944;28;20114;-79
2022/12/05 05:04:10;;;;;;;16.88;7.40;;;6.10;99.90;;;;;;4959827;28;20392;-78
2022/12/05 05:06:37;;;;;;;22.35;8.55;;;6.10;99.90;;;;;;4958245;28;20031;-79
2022/12/05 05:09:03;;;;;;;17.90;8.07;;;6.10;99.90;;;;;;4957298;28;20031;-79
2022/12/05 05:11:32;;;;;;;17.52;7.75;;;6.20;99.90;;;;;;4954144;28;20114;-79
2022/12/05 05:13:58;;;;;;;20.95;9.30;;;6.20;99.90;;;;;;4959424;28;20035;-79
2022/12/05 05:16:33;;;;;;;18.50;8.30;;;6.10;99.90;;;;;;4959677;28;20058;-79
2022/12/05 05:18:59;;;;;;;18.50;7.75;;;6.20;99.90;;;;;;4953446;28;20114;-79
2022/12/05 05:21:34;;;;;;;20.55;8.82;;;6.20;99.90;;;;;;4957886;28;20125;-79
2022/12/05 05:24:01;;;;;;;23.95;9.10;;;6.20;99.90;;;;;;4931353;29;20401;-78
2022/12/05 05:26:28;;;;;;;22.48;9.98;;;6.20;99.90;;;;;;4938111;28;20086;-79
2022/12/05 05:28:55;;;;;;;22.17;8.73;;;6.20;99.90;;;;;;4951818;28;20055;-77
2022/12/05 05:31:21;;;;;;;20.75;8.90;;;6.20;99.90;;;;;;4937662;28;20110;-77
2022/12/05 05:33:52;;;;;;;23.40;10.02;;;6.10;99.90;;;;;;4938751;29;20127;-74
2022/12/05 05:36:18;;;;;;;19.88;8.30;;;6.10;99.90;;;;;;4937527;29;20066;-74
2022/12/05 05:38:46;;;;;;;23.48;9.82;;;6.10;99.90;;;;;;4959392;28;20043;-79
2022/12/05 05:41:14;;;;;;;18.45;8.63;;;6.10;99.90;;;;;;4956380;28;20082;-78
2022/12/05 05:43:40;;;;;;;22.40;9.02;;;6.10;99.90;;;;;;4958935;28;20031;-79
2022/12/05 05:46:07;;;;;;;19.90;7.72;;;6.10;99.90;;;;;;4941460;29;20435;-78
2022/12/05 05:48:33;;;;;;;24.15;10.82;;;6.10;99.90;;;;;;4942178;29;20031;-79
2022/12/05 05:50:59;;;;;;;21.65;8.98;;;6.10;99.90;;;;;;4950465;28;20031;-76
2022/12/05 05:53:25;;;;;;;18.20;8.48;;;6.10;99.90;;;;;;4929720;29;20035;-78
2022/12/05 05:55:51;;;;;;;21.05;9.35;;;6.10;99.90;;;;;;4959105;28;20038;-78
2022/12/05 05:58:16;;;;;;;17.52;7.65;;;6.10;99.90;;;;;;4958682;28;20046;-77
2022/12/05 06:00:42;;;;;;;23.80;10.55;;;6.10;99.90;;;;;;4932262;29;20034;-78
2022/12/05 06:03:08;;;;;;;21.48;9.52;;;6.10;99.90;;;;;;4957472;28;20023;-79
2022/12/05 06:05:34;;;;;;;20.02;8.63;;;6.10;99.90;;;;;;4936941;29;20051;-77
2022/12/05 06:08:00;;;;;;;17.00;8.35;;;6.10;99.90;;;;;;4949767;28;20381;-77
2022/12/05 06:10:25;;;;;;;18.20;8.60;;;6.20;99.90;;;;;;4932552;29;20051;-77
2022/12/05 06:12:51;;;;;;;17.20;7.65;;;6.20;99.90;;;;;;4936293;28;20058;-79
2022/12/05 06:15:17;;;;;;;18.15;7.25;;;6.10;99.90;;;;;;4941505;29;20066;-79
2022/12/05 06:17:42;;;;;;;18.98;8.52;;;6.20;99.90;;;;;;4957132;28;20510;-78
2022/12/05 06:20:08;;;;;;;18.48;8.73;;;6.20;99.90;;;;;;4958851;28;20034;-79
2022/12/05 06:22:34;;;;;;;19.08;9.50;;;6.10;99.90;;;;;;4934586;28;20509;-79
2022/12/05 06:25:00;;;;;;;23.48;9.95;;;6.10;99.90;;;;;;4936206;29;20023;-78
2022/12/05 06:46:00;;;;;;;13.05;6.55;;;6.10;99.90;;;;;;4895352;29;20043;-81
2022/12/05 06:51:58;;;;;;;14.13;6.75;;;6.10;99.90;;;;;;4951298;28;20026;-79
2022/12/05 06:54:24;;;;;;;14.07;7.20;;;6.10;99.90;;;;;;4943689;29;20027;-79
2022/12/05 06:56:50;;;;;;;16.80;7.88;;;6.10;99.90;;;;;;4949854;28;20035;-80
2022/12/05 06:59:16;;;;;;;15.98;8.02;;;6.10;99.90;;;;;;4958827;28;20034;-80
2022/12/05 07:01:41;;;;;;;15.20;7.63;;;6.20;99.90;;;;;;4949143;28;20445;-79
2022/12/05 07:04:10;;;;;;;18.70;8.75;;;6.20;99.90;;;;;;4939626;29;20118;-80
2022/12/05 07:06:36;;;;;;;16.58;7.80;;;6.20;99.90;;;;;;4936299;28;20503;-79
2022/12/05 07:09:02;;;;;;;20.02;8.57;;;6.20;99.90;;;;;;4959486;28;20035;-79
2022/12/05 07:11:49;;;;;;;18.42;9.38;;;6.20;99.90;;;;;;4956493;28;20027;-80
2022/12/05 07:14:21;;;;;;;17.98;8.65;;;6.20;99.90;;;;;;4960905;28;20054;-80
2022/12/05 07:20:59;;;;;;;17.67;7.57;;;6.20;99.90;;;;;;4947978;28;20573;-83
2022/12/05 07:27:00;;;;;;;14.85;7.07;;;6.20;99.90;;;;;;4839700;29;20053;-80
2022/12/05 07:29:25;;;;;;;15.38;6.88;;;6.20;99.90;;;;;;4937675;28;20049;-80
2022/12/05 07:31:52;;;;;;;18.70;8.10;;;6.20;99.90;;;;;;4955274;28;20055;-79
2022/12/05 07:34:21;;;;;;;19.00;9.00;;;6.20;99.90;;;;;;4943996;28;20106;-80
2022/12/05 07:36:53;;;;;;;15.32;7.75;;;6.20;99.90;;;;;;4951728;28;20154;-81
2022/12/05 07:39:19;;;;;;;15.40;7.93;;;6.20;99.90;;;;;;4944356;29;20034;-79
2022/12/05 07:41:44;;;;;;;20.23;9.50;;;6.20;99.90;;;;;;4958940;28;20035;-77
2022/12/05 07:44:11;;;;;;;22.75;10.50;;;6.20;99.90;;;;;;4961045;28;20082;-78
2022/12/05 07:46:37;;;;;;;17.02;7.65;;;6.20;99.90;;;;;;4944526;28;20030;-77
2022/12/05 07:49:03;;;;;;;21.45;9.52;;;6.20;99.90;;;;;;4937821;29;20031;-77
2022/12/05 07:51:29;;;;;;;16.75;7.85;;;6.20;99.90;;;;;;4958257;28;20119;-80
2022/12/05 07:53:55;;;;;;;22.38;10.32;;;6.20;99.90;;;;;;4942622;29;20138;-79
2022/12/05 07:56:21;;;;;;;19.30;9.00;;;6.20;99.90;;;;;;4933694;29;20588;-80
2022/12/05 07:58:48;;;;;;;20.50;9.55;;;6.20;99.90;;;;;;4938804;28;20035;-80
2022/12/05 08:01:17;;;;;;;19.45;8.77;;;6.20;99.90;;;;;;4961156;28;20484;-80
2022/12/05 08:03:43;;;;;;;15.65;7.75;;;6.20;99.90;;;;;;4952191;28;20112;-80
2022/12/05 08:06:12;;;;;;;20.85;9.60;;;6.30;99.90;;;;;;4938661;29;20117;-80
2022/12/05 08:08:38;;;;;;;23.08;10.23;;;6.30;99.90;;;;;;4950172;28;20512;-79
2022/12/05 08:11:18;;;;;;;15.00;8.70;;;6.30;99.90;;;;;;4952621;28;20039;-79
2022/12/05 08:13:44;;;;;;;18.27;9.05;;;6.30;99.90;;;;;;4952010;28;20097;-79
2022/12/05 08:16:13;;;;;;;19.42;9.30;;;6.30;99.90;;;;;;4954282;28;20067;-78
2022/12/05 08:18:39;;;;;;;18.00;7.95;;;6.30;99.90;;;;;;4967434;28;20102;-78
2022/12/05 08:21:07;;;;;;;20.45;9.52;;;6.30;99.90;;;;;;4949883;28;20061;-78
2022/12/05 08:23:34;;;;;;;18.83;9.32;;;6.30;99.90;;;;;;4946442;28;20038;-78
2022/12/05 08:26:08;;;;;;;22.75;9.95;;;6.30;99.90;;;;;;4955728;28;20027;-78
2022/12/05 08:28:35;;;;;;;23.58;9.90;;;6.30;99.90;;;;;;4969962;28;20118;-78
2022/12/05 08:31:15;;;;;;;23.20;10.82;;;6.30;99.90;;;;;;4963758;28;20035;-80
2022/12/05 08:33:44;;;;;;;23.80;10.70;;;6.30;99.90;;;;;;4951786;28;20015;-80
2022/12/05 08:36:12;;;;;;;22.58;10.63;;;6.30;99.90;;;;;;4956258;28;20035;-78
2022/12/05 08:38:38;;;;;;;19.80;8.73;;;6.30;99.90;;;;;;4957084;28;20039;-78
2022/12/05 08:41:07;;;;;;;17.73;7.60;;;6.30;99.90;;;;;;4953873;28;20104;-79
2022/12/05 08:43:33;;;;;;;17.80;8.35;;;6.40;99.90;;;;;;4965771;28;20543;-78
2022/12/05 08:45:59;;;;;;;20.92;9.20;;;6.40;99.90;;;;;;4968017;28;20066;-84
2022/12/05 08:48:27;;;;;;;22.98;10.95;;;6.50;99.90;;;;;;4951451;28;20031;-86
2022/12/05 08:50:53;;;;;;;20.20;9.80;;;6.50;99.90;;;;;;4973631;28;20027;-76
2022/12/05 08:53:19;;;;;;;21.13;9.68;;;6.50;99.90;;;;;;4968215;28;20034;-78
2022/12/05 08:55:44;;;;;;;20.77;9.63;;;6.50;99.90;;;;;;4952327;28;20093;-71
2022/12/05 08:58:10;;;;;;;22.35;9.75;;;6.50;99.90;;;;;;4963992;28;20110;-72
2022/12/05 09:00:36;;;;;;;27.00;11.27;;;6.50;99.90;;;;;;4959733;28;20031;-72
2022/12/05 09:03:02;;;;;;;23.73;11.32;;;6.50;99.90;;;;;;4940765;29;20086;-72
2022/12/05 09:05:28;;;;;;;24.08;11.52;;;6.50;99.90;;;;;;4955426;29;20456;-73
2022/12/05 09:07:53;;;;;;;19.90;9.13;;;6.60;99.90;;;;;;4956844;28;20680;-72
2022/12/05 09:10:19;;;;;;;21.33;10.20;;;6.60;99.90;;;;;;4958316;28;20038;-74
2022/12/05 09:12:45;;;;;;;20.77;9.68;;;6.60;99.90;;;;;;4941182;29;20027;-76
2022/12/05 09:15:11;;;;;;;21.77;9.77;;;6.60;99.90;;;;;;4958799;28;20081;-74
2022/12/05 09:17:38;;;;;;;18.77;9.30;;;6.70;99.90;;;;;;4942286;29;20046;-75
2022/12/05 09:20:07;;;;;;;24.70;11.65;;;6.70;99.90;;;;;;4959505;28;20110;-76
2022/12/05 09:22:34;;;;;;;24.13;10.73;;;6.70;99.90;;;;;;4941492;29;20070;-75
2022/12/05 09:25:00;;;;;;;22.65;10.45;;;6.70;99.90;;;;;;4958481;28;20388;-74
2022/12/05 09:27:27;;;;;;;29.17;12.95;;;6.70;99.90;;;;;;4959547;28;20050;-78
2022/12/05 09:29:53;;;;;;;23.88;11.48;;;6.70;99.90;;;;;;4959916;28;20031;-76
2022/12/05 09:32:19;;;;;;;25.27;11.73;;;6.70;99.90;;;;;;4962695;28;20034;-75
2022/12/05 09:34:44;;;;;;;19.27;9.55;;;6.70;99.90;;;;;;4941141;29;20166;-75
2022/12/05 09:37:10;;;;;;;20.90;10.50;;;6.70;99.90;;;;;;4963022;28;20034;-74
2022/12/05 09:39:36;;;;;;;22.58;11.20;;;6.70;99.90;;;;;;4959039;28;20035;-75
2022/12/05 09:42:17;;;;;;;22.30;11.00;;;6.70;99.90;;;;;;4941684;29;20015;-75
2022/12/05 09:45:01;;;;;;;20.30;9.73;;;6.70;99.90;;;;;;4939598;29;20026;-75
2022/12/05 09:47:41;;;;;;;24.27;11.45;;;6.70;99.90;;;;;;4958556;28;20020;-73
2022/12/05 09:50:25;;;;;;;22.67;10.93;;;6.70;99.90;;;;;;4958926;28;20034;-75
2022/12/05 09:53:04;;;;;;;19.17;8.77;;;6.70;99.90;;;;;;4940796;29;20058;-75
2022/12/05 09:55:42;;;;;;;21.58;9.57;;;6.80;99.90;;;;;;4938323;28;20031;-73
2022/12/05 09:58:31;;;;;;;20.30;8.95;;;6.80;99.90;;;;;;4941282;29;20515;-74
2022/12/05 10:01:08;;;;;;;23.92;10.18;;;6.80;99.90;;;;;;4953247;28;20054;-74
2022/12/05 10:03:42;;;;;;;20.27;10.40;;;6.80;99.90;;;;;;4958591;28;20034;-74
2022/12/05 10:06:17;;;;;;;23.20;11.25;;;6.90;99.90;;;;;;4941476;29;20488;-74
2022/12/05 10:08:49;;;;;;;23.35;10.82;;;6.80;99.90;;;;;;4958777;28;20555;-72
2022/12/05 10:11:31;;;;;;;19.40;9.57;;;6.90;99.90;;;;;;4958674;28;20090;-72
2022/12/05 10:14:05;;;;;;;;;;;6.80;99.90;;;;;;4929235;28;20070;-72
2022/12/05 10:16:41;;;;;;;14.57;7.13;;;6.90;99.90;;;;;;4958301;29;19948;-71
2022/12/05 10:19:14;;;;;;;18.77;8.43;;;6.90;99.90;;;;;;4941089;29;20114;-73
2022/12/05 10:22:00;;;;;;;24.42;11.02;;;6.90;99.90;;;;;;4940650;29;20043;-73
2022/12/05 10:24:38;;;;;;;26.45;12.45;;;6.90;99.90;;;;;;4934291;29;20069;-73
2022/12/05 10:27:14;;;;;;;17.05;8.68;;;6.80;99.90;;;;;;4941120;29;20020;-72
2022/12/05 10:29:49;;;;;;;24.00;10.25;;;6.90;99.90;;;;;;4964677;28;20039;-72
2022/12/05 10:32:41;;;;;;;20.67;10.25;;;6.90;99.90;;;;;;4958194;28;20024;-73
2022/12/05 10:35:15;;;;;;;18.13;8.40;;;7.00;99.90;;;;;;4916219;29;20043;-72
2022/12/05 10:37:43;;;;;;;;;;;7.00;99.90;;;;;;4962373;28;20031;-72
2022/12/05 10:40:15;;;;;;;15.05;8.00;;;7.00;99.90;;;;;;4959831;28;20298;-73
2022/12/05 10:42:41;;;;;;;17.55;8.57;;;7.10;99.90;;;;;;4957755;29;20035;-73
2022/12/05 10:45:13;;;;;;;20.17;9.68;;;7.00;99.90;;;;;;4958229;29;20062;-72
2022/12/05 10:47:39;;;;;;;20.90;10.50;;;7.00;99.90;;;;;;4958058;28;20024;-72
2022/12/05 10:50:33;;;;;;;19.80;10.00;;;7.00;99.90;;;;;;4958100;29;20173;-73
2022/12/05 10:53:02;;;;;;;21.55;10.00;;;7.00;99.90;;;;;;4944616;29;20058;-73
2022/12/05 10:55:39;;;;;;;21.65;10.30;;;7.00;99.90;;;;;;4941387;28;20126;-72
2022/12/05 10:58:16;;;;;;;26.48;11.85;;;7.00;99.90;;;;;;4958593;28;20500;-73
2022/12/05 11:00:45;;;;;;;25.27;11.77;;;7.10;99.90;;;;;;4963717;28;20445;-74
2022/12/05 11:03:34;;;;;;;22.67;10.65;;;7.10;99.90;;;;;;4957819;29;20053;-73
2022/12/05 11:06:13;;;;;;;23.25;11.15;;;7.20;99.90;;;;;;4940628;29;20023;-73
2022/12/05 11:08:39;;;;;;;24.85;11.57;;;7.20;99.90;;;;;;4942895;29;20090;-73
2022/12/05 11:11:08;;;;;;;19.20;9.48;;;7.20;99.90;;;;;;4958305;28;20027;-73
2022/12/05 11:13:34;;;;;;;24.25;10.43;;;7.20;99.90;;;;;;4962784;28;20039;-73
2022/12/05 11:16:00;;;;;;;24.83;11.30;;;7.20;99.90;;;;;;4967170;28;20027;-75
2022/12/05 11:18:35;;;;;;;25.40;11.80;;;7.20;99.90;;;;;;4940815;29;20064;-75
2022/12/05 11:21:10;;;;;;;23.67;11.48;;;7.20;99.90;;;;;;4941358;29;20023;-75
2022/12/05 11:23:36;;;;;;;26.33;11.55;;;7.20;99.90;;;;;;4921750;29;20424;-75
2022/12/05 11:26:02;;;;;;;22.58;10.70;;;7.20;99.90;;;;;;4921823;29;20027;-74
2022/12/05 11:28:35;;;;;;;25.60;10.93;;;7.20;99.90;;;;;;4948110;29;20040;-76
2022/12/05 11:31:03;;;;;;;18.73;9.20;;;7.20;99.90;;;;;;4933639;29;20039;-75
2022/12/05 11:33:34;;;;;;;26.98;11.90;;;7.20;99.90;;;;;;4922222;29;20114;-75
2022/12/05 11:36:18;;;;;;;19.38;8.77;;;7.10;99.90;;;;;;4946047;29;20023;-75
2022/12/05 11:38:44;;;;;;;20.55;9.80;;;7.20;99.90;;;;;;4942121;29;20067;-75
2022/12/05 11:41:28;;;;;;;23.67;12.38;;;7.20;99.90;;;;;;4949346;29;20552;-75
2022/12/05 11:44:22;;;;;;;17.75;9.23;;;7.20;99.90;;;;;;4941935;29;20028;-74
2022/12/05 11:47:09;;;;;;;19.15;9.07;;;7.20;99.90;;;;;;4943097;29;20032;-73
2022/12/05 11:49:34;;;;;;;16.85;8.60;;;7.20;99.90;;;;;;4941927;29;20034;-74
2022/12/05 11:52:21;;;;;;;20.02;9.65;;;7.20;99.90;;;;;;4941915;29;20031;-73
2022/12/05 11:55:00;;;;;;;14.65;8.10;;;7.20;99.90;;;;;;4943516;29;20420;-74
2022/12/05 11:57:46;;;;;;;21.08;9.95;;;7.20;99.90;;;;;;4941613;29;20497;-73
2022/12/05 12:00:36;;;;;;;17.15;8.30;;;7.30;99.90;;;;;;4941802;29;20392;-74
2022/12/05 12:03:35;;;;;;;21.33;10.20;;;7.30;99.90;;;;;;4941471;29;20024;-73
2022/12/05 12:06:24;;;;;;;19.80;8.98;;;7.40;99.90;;;;;;4943251;29;20031;-73
2022/12/05 12:09:27;;;;;;;22.02;9.77;;;7.40;99.90;;;;;;4953476;29;20039;-73
2022/12/05 12:12:12;;;;;;;16.58;7.85;;;7.40;99.90;;;;;;4924794;29;20031;-73
2022/12/05 12:15:01;;;;;;;18.20;9.55;;;7.50;99.90;;;;;;4924712;29;20446;-73
2022/12/05 12:17:40;;;;;;;20.92;10.07;;;7.50;99.90;;;;;;4941936;29;20422;-73
2022/12/05 12:20:28;;;;;;;22.15;10.20;;;7.50;99.90;;;;;;4941781;29;20411;-73
2022/12/05 12:23:14;;;;;;;18.05;8.48;;;7.50;99.90;;;;;;4924623;29;20044;-73
2022/12/05 12:26:03;;;;;;;24.00;10.52;;;7.50;99.90;;;;;;4924599;29;20063;-72
2022/12/05 12:28:55;;;;;;;19.73;8.90;;;7.50;99.90;;;;;;4941489;29;20048;-72
2022/12/05 12:32:03;;;;;;;17.08;8.00;;;7.50;99.90;;;;;;4941067;29;20036;-72
2022/12/05 12:34:37;;;;;;;16.42;8.13;;;7.50;99.90;;;;;;4940529;29;20039;-72
2022/12/05 12:37:30;;;;;;;18.42;9.55;;;7.40;99.90;;;;;;4946356;29;20086;-72
2022/12/05 12:40:21;;;;;;;13.63;6.35;;;7.40;99.90;;;;;;4924377;29;20070;-72
2022/12/05 12:43:11;;;;;;;17.30;9.05;;;7.40;99.90;;;;;;4941359;29;20020;-73
2022/12/05 12:45:56;;;;;;;18.52;8.02;;;7.30;99.90;;;;;;4940982;29;20060;-74
2022/12/05 12:48:45;;;;;;;15.43;8.10;;;7.30;99.90;;;;;;4941328;29;20031;-75
2022/12/05 12:51:12;;;;;;;21.77;9.43;;;7.40;99.90;;;;;;4924176;29;20083;-75
2022/12/05 12:54:06;;;;;;;21.95;10.00;;;7.40;99.90;;;;;;4941214;29;20106;-75
2022/12/05 12:56:46;;;;;;;19.33;9.05;;;7.40;99.90;;;;;;4946271;29;20023;-73
2022/12/05 12:59:35;;;;;;;16.75;7.72;;;7.40;99.90;;;;;;4933484;29;20044;-74
2022/12/05 13:02:27;;;;;;;16.52;7.38;;;7.40;99.90;;;;;;4923790;29;20031;-73
2022/12/05 13:05:18;;;;;;;16.23;7.75;;;7.40;99.90;;;;;;4924028;29;20032;-73
2022/12/05 13:07:52;;;;;;;16.27;7.68;;;7.40;99.90;;;;;;4948196;29;20022;-74
2022/12/05 13:10:39;;;;;;;16.52;7.82;;;7.40;99.90;;;;;;4927714;29;20550;-73
2022/12/05 13:13:06;;;;;;;15.07;7.10;;;7.30;99.90;;;;;;4940744;29;20107;-73
2022/12/05 13:15:43;;;;;;;19.08;8.93;;;7.30;99.90;;;;;;4940879;29;20095;-73
2022/12/05 13:18:16;;;;;;;17.42;8.55;;;7.20;99.90;;;;;;4940524;29;20024;-73
2022/12/05 13:20:42;;;;;;;14.40;7.13;;;7.20;99.90;;;;;;4923936;29;20024;-73
2022/12/05 13:23:13;;;;;;;15.63;7.65;;;7.20;99.90;;;;;;4940536;29;20355;-73
2022/12/05 13:25:40;;;;;;;14.60;7.22;;;7.20;99.90;;;;;;4923144;29;20015;-72
2022/12/05 13:28:22;;;;;;;16.75;8.20;;;7.30;99.90;;;;;;4922505;29;20060;-75
2022/12/05 13:31:00;;;;;;;14.43;7.22;;;7.30;99.90;;;;;;4938270;29;20039;-75
2022/12/05 13:33:30;;;;;;;15.63;7.90;;;7.30;99.90;;;;;;4922704;29;20512;-76
2022/12/05 13:44:40;;;;;;;13.25;6.28;;;7.30;99.90;;;;;;4939972;29;19958;-75
2022/12/05 13:47:23;;;;;;;12.77;6.28;;;7.30;99.90;;;;;;4922703;29;20030;-75
2022/12/05 13:50:01;;;;;;;15.23;6.82;;;7.40;99.90;;;;;;4922852;29;20046;-75
2022/12/05 13:52:30;;;;;;;20.05;9.05;;;7.40;99.90;;;;;;4922755;29;20508;-74
2022/12/05 13:55:20;;;;;;;15.82;7.85;;;7.50;99.90;;;;;;4939725;29;20028;-75
2022/12/05 13:57:49;;;;;;;16.65;8.13;;;7.40;99.90;;;;;;4938973;29;20473;-75
2022/12/05 14:00:14;;;;;;;16.85;7.63;;;7.40;99.90;;;;;;4922606;29;20052;-75
2022/12/05 14:02:46;;;;;;;13.85;7.00;;;7.40;99.90;;;;;;4939545;29;20024;-75